createdAt,value
2022-08-17T00:05:00.863Z,22.1
2022-08-17T00:20:00.842Z,22
2022-08-17T00:35:00.845Z,21.9
2022-08-17T00:50:00.863Z,21.9
2022-08-17T01:05:00.845Z,21.6
2022-08-17T01:20:00.854Z,21.4
2022-08-17T01:35:00.862Z,21.4
2022-08-17T01:50:00.838Z,21.2
2022-08-17T02:05:00.847Z,21.2
2022-08-17T02:20:00.844Z,20.9
2022-08-17T02:35:00.852Z,20.9
2022-08-17T02:50:00.842Z,20.9
2022-08-17T03:05:00.844Z,20.9
2022-08-17T03:20:00.845Z,20.8
2022-08-17T03:35:00.846Z,20.8
2022-08-17T03:50:00.845Z,20.6
2022-08-17T04:05:00.843Z,20.5
2022-08-17T04:20:00.853Z,20.9
2022-08-17T04:35:00.844Z,20.9
2022-08-17T04:50:00.842Z,20.8
2022-08-17T05:05:00.844Z,20.7
2022-08-17T05:20:00.865Z,20.6
2022-08-17T05:35:00.937Z,20.5
2022-08-17T05:50:00.837Z,20.4
2022-08-17T06:05:00.845Z,20.4
2022-08-17T06:20:00.846Z,20.3
2022-08-17T06:35:00.839Z,20.5
2022-08-17T06:50:00.854Z,20.7
2022-08-17T07:05:00.852Z,20.6
2022-08-17T07:20:00.845Z,20.6
2022-08-17T07:35:00.846Z,21
2022-08-17T07:50:00.845Z,21.1
2022-08-17T08:05:01.805Z,20.9
2022-08-17T08:20:00.848Z,20.9
2022-08-17T08:35:02.411Z,20.2
2022-08-17T08:50:04.252Z,19.9
2022-08-17T09:05:14.897Z,18.2
2022-08-17T09:20:00.861Z,18.6
2022-08-17T09:35:00.847Z,19
2022-08-17T09:50:00.868Z,19.2
2022-08-17T10:05:00.843Z,19.8
2022-08-17T10:20:00.845Z,19.7
2022-08-17T10:35:00.847Z,18.6
2022-08-17T10:50:00.842Z,18.6
2022-08-17T11:05:00.847Z,18.7
2022-08-17T11:20:00.841Z,18.8
2022-08-17T11:35:00.845Z,19.1
2022-08-17T11:50:00.847Z,19.3
2022-08-17T12:05:00.852Z,19.2
2022-08-17T12:20:00.845Z,19
2022-08-17T12:35:00.849Z,18.7
2022-08-17T12:50:00.850Z,18.8
2022-08-17T13:05:00.847Z,19.1
2022-08-17T13:20:00.843Z,19.7
2022-08-17T13:35:13.244Z,20.4
2022-08-17T13:50:00.864Z,21
2022-08-17T14:05:00.845Z,21.1
2022-08-17T14:20:00.892Z,22.9
2022-08-17T14:35:00.838Z,22.9
2022-08-17T14:50:00.843Z,23.8
2022-08-17T15:05:00.850Z,24.7
2022-08-17T15:20:00.855Z,24.4
2022-08-17T15:35:00.852Z,24.7
2022-08-17T15:50:00.928Z,25.1
2022-08-17T16:05:00.925Z,24.4
2022-08-17T16:20:00.847Z,25.4
2022-08-17T16:35:00.845Z,25.4
2022-08-17T16:50:00.852Z,25.4
2022-08-17T17:05:00.844Z,24.2
2022-08-17T17:20:00.841Z,23.6
2022-08-17T17:35:00.846Z,23.5
2022-08-17T17:50:00.843Z,23.9
2022-08-17T18:05:00.843Z,22.9
2022-08-17T18:20:00.855Z,22.5
2022-08-17T18:35:00.847Z,22
2022-08-17T18:50:00.843Z,22.1
2022-08-17T19:05:00.844Z,21.7
2022-08-17T19:20:00.850Z,21.2
2022-08-17T19:35:00.845Z,21.2
2022-08-17T19:50:00.845Z,21.2
2022-08-17T20:05:00.838Z,21
2022-08-17T20:20:00.849Z,20.8
2022-08-17T20:35:00.857Z,20.7
2022-08-17T20:50:00.841Z,20.6
2022-08-17T21:05:00.851Z,20.2
2022-08-17T21:20:10.701Z,20.1
2022-08-17T21:35:00.844Z,19.6
2022-08-17T21:50:00.848Z,19.4
2022-08-17T22:05:00.839Z,19.2
2022-08-17T22:20:00.845Z,18.9
2022-08-17T22:35:00.841Z,18.9
2022-08-17T22:50:00.836Z,18.4
2022-08-17T23:05:00.846Z,18.6
2022-08-17T23:20:00.883Z,18.4
2022-08-17T23:35:00.853Z,18.3
2022-08-17T23:50:01.669Z,18.1
